METAR Data
IDs: Format: Raw Decoded Include TAF

Data at: 2119 UTC 02 Aug 2021

KMDZ 022115Z AUTO 25006KT 10SM BKN100 22/14 A3013 RMK AO2 T02210140 PWINO